createdAt,value
2017-12-02T00:02:20.915Z,101489.53
2017-12-02T00:04:47.747Z,101492.64
2017-12-02T00:07:15.664Z,101503.03
2017-12-02T00:09:42.575Z,101496.97
2017-12-02T00:12:10.630Z,101493.50
2017-12-02T00:14:38.059Z,101503.88
2017-12-02T00:17:05.386Z,101516.02
2017-12-02T00:19:32.719Z,101512.14
2017-12-02T00:21:59.983Z,101519.06
2017-12-02T00:24:26.854Z,101518.65
2017-12-02T00:26:53.756Z,101522.98
2017-12-02T00:29:20.592Z,101522.09
2017-12-02T00:31:47.453Z,101528.17
2017-12-02T00:34:14.327Z,101522.52
2017-12-02T00:36:41.811Z,101534.23
2017-12-02T00:39:08.938Z,101537.71
2017-12-02T00:41:35.844Z,101546.80
2017-12-02T00:44:02.712Z,101542.02
2017-12-02T00:46:29.572Z,101542.88
2017-12-02T00:48:56.595Z,101540.31
2017-12-02T00:51:23.437Z,101542.92
2017-12-02T00:53:50.988Z,101549.84
2017-12-02T00:56:17.855Z,101558.95
2017-12-02T00:58:44.758Z,101553.75
2017-12-02T01:01:12.303Z,101557.20
2017-12-02T01:03:39.155Z,101552.35
2017-12-02T01:06:06.097Z,101562.83
2017-12-02T01:08:33.004Z,101564.16
2017-12-02T01:11:00.644Z,101575.02
2017-12-02T01:13:28.132Z,101578.02
2017-12-02T01:15:55.164Z,101581.05
2017-12-02T01:18:22.243Z,101583.69
2017-12-02T01:20:49.129Z,101588.02
2017-12-02T01:23:16.025Z,101594.50
2017-12-02T01:25:43.655Z,101594.50
2017-12-02T01:28:10.553Z,101586.66
2017-12-02T01:30:37.367Z,101587.45
2017-12-02T01:33:04.246Z,101592.05
2017-12-02T01:35:31.079Z,101594.17
2017-12-02T01:37:57.900Z,101593.69
2017-12-02T01:40:25.456Z,101596.37
2017-12-02T01:42:52.279Z,101598.23
2017-12-02T01:45:19.123Z,101598.56
2017-12-02T01:47:45.960Z,101599.84
2017-12-02T01:50:12.790Z,101609.40
2017-12-02T01:52:39.612Z,101613.14
2017-12-02T01:55:06.443Z,101614.47
2017-12-02T01:57:34.033Z,101614.88
2017-12-02T02:00:01.622Z,101611.42
2017-12-02T02:02:28.564Z,101616.19
2017-12-02T02:04:56.122Z,101618.78
2017-12-02T02:07:22.936Z,101622.27
2017-12-02T02:09:49.823Z,101620.09
2017-12-02T02:12:16.723Z,101622.25
2017-12-02T02:14:44.367Z,101613.95
2017-12-02T02:17:11.272Z,101622.22
2017-12-02T02:19:38.877Z,101624.88
2017-12-02T02:22:05.796Z,101620.52
2017-12-02T02:24:32.743Z,101622.72
2017-12-02T02:26:59.628Z,101615.26
2017-12-02T02:29:26.472Z,101622.15
2017-12-02T02:31:53.344Z,101623.53
2017-12-02T02:34:20.204Z,101618.70
2017-12-02T02:36:47.061Z,101623.87
2017-12-02T02:39:13.897Z,101630.95
2017-12-02T02:41:40.723Z,101636.61
2017-12-02T02:44:07.627Z,101641.37
2017-12-02T02:46:34.511Z,101650.05
2017-12-02T02:49:01.361Z,101642.68
2017-12-02T02:51:28.199Z,101647.88
2017-12-02T02:53:55.051Z,101644.41
2017-12-02T02:56:21.909Z,101650.49
2017-12-02T02:58:48.788Z,101649.19
2017-12-02T03:01:15.638Z,101652.66
2017-12-02T03:03:42.460Z,101654.37
2017-12-02T03:06:10.048Z,101658.30
2017-12-02T03:08:36.923Z,101663.05
2017-12-02T03:11:03.904Z,101658.17
2017-12-02T03:13:30.846Z,101657.19
2017-12-02T03:15:57.788Z,101652.53
2017-12-02T03:18:25.450Z,101662.20
2017-12-02T03:20:52.388Z,101658.68
2017-12-02T03:23:19.289Z,101664.34
2017-12-02T03:25:46.941Z,101665.98
2017-12-02T03:28:13.903Z,101664.78
2017-12-02T03:30:40.853Z,101663.06
2017-12-02T03:33:07.780Z,101667.84
2017-12-02T03:35:34.726Z,101670.87
2017-12-02T03:38:02.417Z,101664.73
2017-12-02T03:40:30.087Z,101663.04
2017-12-02T03:42:57.808Z,101669.55
2017-12-02T03:45:24.751Z,101663.05
2017-12-02T03:47:51.743Z,101661.30
2017-12-02T03:50:18.755Z,101664.36
2017-12-02T03:52:46.406Z,101671.75
2017-12-02T03:55:13.433Z,101674.36
2017-12-02T03:57:40.356Z,101677.37
2017-12-02T04:00:07.372Z,101688.24
2017-12-02T04:02:34.265Z,101684.76
2017-12-02T04:05:01.156Z,101693.02
2017-12-02T04:07:28.876Z,101684.77
2017-12-02T04:09:55.787Z,101689.52
2017-12-02T04:12:22.694Z,101694.32
2017-12-02T04:14:49.882Z,101693.45
2017-12-02T04:17:16.865Z,101694.30
2017-12-02T04:19:43.829Z,101693.88
2017-12-02T04:22:10.738Z,101698.63
2017-12-02T04:24:37.651Z,101700.80
2017-12-02T04:27:04.596Z,101706.00
2017-12-02T04:29:32.292Z,101700.82
2017-12-02T04:31:59.230Z,101698.66
2017-12-02T04:34:26.196Z,101703.84
2017-12-02T04:36:53.091Z,101705.16
2017-12-02T04:39:20.017Z,101704.30
2017-12-02T04:41:46.943Z,101696.47
2017-12-02T04:44:14.603Z,101695.19
2017-12-02T04:46:41.483Z,101689.96
2017-12-02T04:49:08.391Z,101697.33
2017-12-02T04:51:35.302Z,101689.06
2017-12-02T04:54:02.227Z,101691.72
2017-12-02T04:56:29.145Z,101694.32
2017-12-02T04:58:56.812Z,101692.13
2017-12-02T05:01:24.542Z,101699.09
2017-12-02T05:03:51.467Z,101691.70
2017-12-02T05:06:19.124Z,101696.46
2017-12-02T05:08:46.063Z,101697.79
2017-12-02T05:11:12.977Z,101706.90
2017-12-02T05:13:40.660Z,101712.10
2017-12-02T05:16:07.576Z,101712.11
2017-12-02T05:18:34.481Z,101717.30
2017-12-02T05:21:02.140Z,101716.44
2017-12-02T05:23:29.106Z,101720.33
2017-12-02T05:25:56.022Z,101719.46
2017-12-02T05:28:22.939Z,101727.30
2017-12-02T05:30:50.579Z,101727.29
2017-12-02T05:33:17.531Z,101736.41
2017-12-02T05:35:44.435Z,101722.93
2017-12-02T05:38:11.356Z,101724.23
2017-12-02T05:40:38.260Z,101725.57
2017-12-02T05:43:05.187Z,101725.13
2017-12-02T05:45:32.105Z,101731.17
2017-12-02T05:47:59.756Z,101732.48
2017-12-02T05:50:26.700Z,101732.49
2017-12-02T05:52:53.618Z,101730.32
2017-12-02T05:55:20.495Z,101739.00
2017-12-02T05:57:47.442Z,101737.25
2017-12-02T06:00:14.390Z,101741.59
2017-12-02T06:02:42.044Z,101742.48
2017-12-02T06:05:08.948Z,101740.30
2017-12-02T06:07:35.844Z,101738.55
2017-12-02T06:10:02.851Z,101739.87
2017-12-02T06:12:29.832Z,101746.80
2017-12-02T06:14:56.726Z,101748.98
2017-12-02T06:17:23.671Z,101755.05
2017-12-02T06:19:50.568Z,101760.69
2017-12-02T06:22:17.454Z,101765.03
2017-12-02T06:24:44.382Z,101770.23
2017-12-02T06:27:11.290Z,101770.67
2017-12-02T06:29:38.188Z,101777.16
2017-12-02T06:32:05.111Z,101783.67
2017-12-02T06:34:32.035Z,101791.92
2017-12-02T06:36:58.936Z,101790.19
2017-12-02T06:39:25.862Z,101793.22
2017-12-02T06:41:52.779Z,101799.28
2017-12-02T06:44:20.463Z,101805.80
2017-12-02T06:46:48.137Z,101800.63
2017-12-02T06:49:15.833Z,101800.22
2017-12-02T06:51:42.831Z,101808.02
2017-12-02T06:54:10.483Z,101811.02
2017-12-02T06:56:37.453Z,101818.80
2017-12-02T06:59:04.407Z,101817.06
2017-12-02T07:01:31.508Z,101816.63
2017-12-02T07:03:58.502Z,101818.88
2017-12-02T07:06:25.505Z,101821.84
2017-12-02T07:08:52.506Z,101819.69
2017-12-02T07:11:19.496Z,101820.98
2017-12-02T07:13:46.570Z,101822.26
2017-12-02T07:16:13.596Z,101820.08
2017-12-02T07:18:40.516Z,101829.22
2017-12-02T07:21:08.220Z,101827.05
2017-12-02T07:23:35.166Z,101830.52
2017-12-02T07:26:02.192Z,101827.92
2017-12-02T07:28:29.150Z,101834.02
2017-12-02T07:30:56.063Z,101834.02
2017-12-02T07:33:22.946Z,101835.78
2017-12-02T07:35:49.828Z,101839.62
2017-12-02T07:38:16.768Z,101845.66
2017-12-02T07:40:43.661Z,101847.36
2017-12-02T07:43:10.531Z,101844.83
2017-12-02T07:45:37.803Z,101841.75
2017-12-02T07:48:04.822Z,101840.06
2017-12-02T07:50:31.783Z,101841.36
2017-12-02T07:52:58.702Z,101846.58
2017-12-02T07:55:25.656Z,101857.82
2017-12-02T07:57:52.634Z,101848.32
2017-12-02T08:00:19.602Z,101853.17
2017-12-02T08:02:47.236Z,101853.17
2017-12-02T08:05:14.148Z,101854.41
2017-12-02T08:07:41.861Z,101864.78
2017-12-02T08:10:08.746Z,101855.23
2017-12-02T08:12:35.674Z,101859.16
2017-12-02T08:15:02.571Z,101859.98
2017-12-02T08:17:29.451Z,101862.16
2017-12-02T08:19:56.344Z,101859.59
2017-12-02T08:22:23.956Z,101853.98
2017-12-02T08:24:50.847Z,101853.11
2017-12-02T08:27:17.791Z,101853.49
2017-12-02T08:29:44.699Z,101860.02
2017-12-02T08:32:12.260Z,101857.06
2017-12-02T08:34:39.185Z,101854.83
2017-12-02T08:37:06.943Z,101853.08
2017-12-02T08:39:33.840Z,101860.84
2017-12-02T08:42:00.722Z,101864.77
2017-12-02T08:44:28.385Z,101859.19
2017-12-02T08:46:55.279Z,101866.09
2017-12-02T08:49:22.161Z,101868.70
2017-12-02T08:51:49.831Z,101875.23
2017-12-02T08:54:16.717Z,101878.69
2017-12-02T08:56:43.658Z,101874.37
2017-12-02T08:59:10.569Z,101876.11
2017-12-02T09:01:37.426Z,101886.52
2017-12-02T09:04:05.598Z,101878.44
2017-12-02T09:06:32.508Z,101884.89
2017-12-02T09:08:59.395Z,101890.14
2017-12-02T09:11:26.315Z,101889.28
2017-12-02T09:13:53.203Z,101891.85
2017-12-02T09:16:20.108Z,101893.52
2017-12-02T09:18:47.132Z,101895.39
2017-12-02T09:21:14.067Z,101898.02
2017-12-02T09:23:41.472Z,101906.69
2017-12-02T09:26:09.133Z,101912.36
2017-12-02T09:28:36.001Z,101912.34
2017-12-02T09:31:02.884Z,101917.11
2017-12-02T09:33:30.574Z,101922.80
2017-12-02T09:35:57.452Z,101930.61
2017-12-02T09:38:24.363Z,101921.92
2017-12-02T09:40:51.255Z,101923.21
2017-12-02T09:43:18.916Z,101920.99
2017-12-02T09:45:45.814Z,101931.45
2017-12-02T09:48:12.717Z,101933.62
2017-12-02T09:50:39.596Z,101941.28
2017-12-02T09:53:06.522Z,101934.08
2017-12-02T09:55:33.409Z,101938.00
2017-12-02T09:58:00.333Z,101938.35
2017-12-02T10:00:27.215Z,101947.06
2017-12-02T10:02:54.083Z,101942.75
2017-12-02T10:05:20.984Z,101948.82
2017-12-02T10:07:47.920Z,101945.69
2017-12-02T10:10:14.819Z,101933.67
2017-12-02T10:12:42.449Z,101930.56
2017-12-02T10:15:09.348Z,101934.97
2017-12-02T10:17:36.211Z,101931.91
2017-12-02T10:20:03.192Z,101939.30
2017-12-02T10:22:30.883Z,101940.18
2017-12-02T10:24:57.804Z,101947.59
2017-12-02T10:27:24.718Z,101950.16
2017-12-02T10:29:51.642Z,101951.86
2017-12-02T10:32:18.527Z,101955.69
2017-12-02T10:34:46.295Z,101953.61
2017-12-02T10:37:13.266Z,101944.52
2017-12-02T10:39:40.969Z,101941.86
2017-12-02T10:42:07.920Z,101943.61
2017-12-02T10:44:35.607Z,101941.48
2017-12-02T10:47:02.523Z,101938.02
2017-12-02T10:49:29.368Z,101942.34
2017-12-02T10:51:56.251Z,101944.47
2017-12-02T10:54:23.151Z,101940.59
2017-12-02T10:56:50.780Z,101941.06
2017-12-02T10:59:17.704Z,101934.95
2017-12-02T11:01:44.564Z,101937.54
2017-12-02T11:04:11.403Z,101936.67
2017-12-02T11:06:38.984Z,101936.70
2017-12-02T11:09:06.620Z,101932.36
2017-12-02T11:11:33.518Z,101933.23
2017-12-02T11:14:01.153Z,101933.23
2017-12-02T11:16:27.996Z,101928.43
2017-12-02T11:18:54.845Z,101931.47
2017-12-02T11:21:21.694Z,101931.04
2017-12-02T11:23:48.625Z,101932.34
2017-12-02T11:26:15.462Z,101932.77
2017-12-02T11:28:42.391Z,101931.05
2017-12-02T11:31:09.267Z,101930.60
2017-12-02T11:33:36.136Z,101930.17
2017-12-02T11:36:03.050Z,101926.67
2017-12-02T11:38:30.719Z,101914.95
2017-12-02T11:40:57.625Z,101919.30
2017-12-02T11:43:24.461Z,101928.44
2017-12-02T11:45:52.042Z,101926.18
2017-12-02T11:48:19.632Z,101923.63
2017-12-02T11:50:46.449Z,101916.27
2017-12-02T11:53:13.300Z,101923.67
2017-12-02T11:55:40.148Z,101919.30
2017-12-02T11:58:06.974Z,101920.98
2017-12-02T12:00:33.823Z,101915.41
2017-12-02T12:03:01.428Z,101913.24
2017-12-02T12:05:28.302Z,101915.41
2017-12-02T12:07:55.146Z,101909.75
2017-12-02T12:10:21.973Z,101896.70
2017-12-02T12:12:49.542Z,101897.99
2017-12-02T12:15:16.349Z,101895.42
2017-12-02T12:17:43.180Z,101900.18
2017-12-02T12:20:10.001Z,101903.66
2017-12-02T12:22:36.853Z,101907.14
2017-12-02T12:25:03.724Z,101902.78
2017-12-02T12:27:30.608Z,101902.75
2017-12-02T12:29:57.415Z,101896.72
2017-12-02T12:32:24.271Z,101895.83
2017-12-02T12:34:51.115Z,101894.95
2017-12-02T12:37:18.731Z,101892.35
2017-12-02T12:39:45.575Z,101897.13
2017-12-02T12:42:12.421Z,101901.48
2017-12-02T12:44:39.281Z,101890.16
2017-12-02T12:47:06.143Z,101890.63
2017-12-02T12:49:33.008Z,101887.13
2017-12-02T12:51:59.868Z,101884.94
2017-12-02T12:54:26.762Z,101879.73
2017-12-02T12:56:53.616Z,101879.33
2017-12-02T12:59:20.524Z,101876.27
2017-12-02T13:01:47.416Z,101871.91
2017-12-02T13:04:14.296Z,101873.22
2017-12-02T13:06:41.132Z,101864.97
2017-12-02T13:09:07.962Z,101866.28
2017-12-02T13:11:34.760Z,101864.96
2017-12-02T13:14:01.642Z,101860.20
2017-12-02T13:16:28.514Z,101861.47
2017-12-02T13:18:55.351Z,101866.71
2017-12-02T13:21:22.246Z,101871.03
2017-12-02T13:23:49.059Z,101883.20
2017-12-02T13:26:15.885Z,101874.54
2017-12-02T13:28:42.711Z,101882.80
2017-12-02T13:31:09.539Z,101888.45
2017-12-02T13:33:36.412Z,101895.38
2017-12-02T13:36:03.304Z,101893.67
2017-12-02T13:38:30.190Z,101890.62
2017-12-02T13:40:57.057Z,101896.27
2017-12-02T13:43:23.923Z,101894.96
2017-12-02T13:45:50.793Z,101893.22
2017-12-02T13:48:18.364Z,101898.43
2017-12-02T13:50:45.205Z,101897.14
2017-12-02T13:53:12.103Z,101892.36
2017-12-02T13:55:39.713Z,101898.44
2017-12-02T13:58:06.595Z,101891.94
2017-12-02T14:00:33.734Z,101888.88
2017-12-02T14:03:00.608Z,101893.69
2017-12-02T14:05:27.494Z,101897.12
2017-12-02T14:07:54.434Z,101898.44
2017-12-02T14:10:21.329Z,101901.06
2017-12-02T14:12:48.164Z,101895.83
2017-12-02T14:15:14.988Z,101894.52
2017-12-02T14:17:41.843Z,101894.53
2017-12-02T14:20:09.412Z,101893.66
2017-12-02T14:22:36.982Z,101901.50
2017-12-02T14:25:03.846Z,101900.17
2017-12-02T14:27:30.646Z,101897.58
2017-12-02T14:29:57.467Z,101906.25
2017-12-02T14:32:24.301Z,101903.58
2017-12-02T14:34:51.100Z,101906.27
2017-12-02T14:37:17.989Z,101902.80
2017-12-02T14:39:44.834Z,101906.72
2017-12-02T14:42:11.675Z,101898.00
2017-12-02T14:44:39.256Z,101900.58
2017-12-02T14:47:06.819Z,101913.95
2017-12-02T14:49:33.616Z,101910.08
2017-12-02T14:52:00.476Z,101917.56
2017-12-02T14:54:27.308Z,101917.10
2017-12-02T14:56:54.154Z,101920.08
2017-12-02T14:59:20.957Z,101917.53
2017-12-02T15:01:47.847Z,101914.05
2017-12-02T15:04:14.740Z,101914.54
2017-12-02T15:06:41.549Z,101912.38
2017-12-02T15:09:08.398Z,101916.28
2017-12-02T15:11:35.256Z,101904.95
2017-12-02T15:14:02.142Z,101903.49
2017-12-02T15:16:28.980Z,101901.41
2017-12-02T15:18:55.810Z,101909.28
2017-12-02T15:21:22.654Z,101905.30
2017-12-02T15:23:49.516Z,101901.19
2017-12-02T15:26:16.334Z,101903.83
2017-12-02T15:28:43.336Z,101904.67
2017-12-02T15:31:10.162Z,101904.87
2017-12-02T15:33:36.995Z,101905.82
2017-12-02T15:36:04.640Z,101898.13
2017-12-02T15:38:31.549Z,101902.41
2017-12-02T15:40:59.211Z,101899.42
2017-12-02T15:43:26.082Z,101908.00
2017-12-02T15:45:53.801Z,101914.36
2017-12-02T15:48:20.822Z,101905.59
2017-12-02T15:50:48.401Z,101905.40
2017-12-02T15:53:15.318Z,101911.47
2017-12-02T15:55:42.269Z,101918.79
2017-12-02T15:58:09.170Z,101923.45
2017-12-02T16:00:36.091Z,101926.98
2017-12-02T16:03:02.973Z,101927.55
2017-12-02T16:05:29.846Z,101930.17
2017-12-02T16:07:56.764Z,101927.02
2017-12-02T16:10:23.633Z,101928.25
2017-12-02T16:12:50.553Z,101926.47
2017-12-02T16:15:17.544Z,101932.98
2017-12-02T16:17:44.427Z,101923.52
2017-12-02T16:20:11.305Z,101927.98
2017-12-02T16:22:38.323Z,101928.87
2017-12-02T16:25:05.936Z,101925.29
2017-12-02T16:27:32.780Z,101927.43
2017-12-02T16:29:59.743Z,101921.84
2017-12-02T16:32:26.623Z,101928.31
2017-12-02T16:34:53.481Z,101933.19
2017-12-02T16:37:20.411Z,101931.45
2017-12-02T16:39:48.101Z,101939.73
2017-12-02T16:42:14.936Z,101938.77
2017-12-02T16:44:41.862Z,101940.63
2017-12-02T16:47:08.715Z,101930.95
2017-12-02T16:49:35.605Z,101933.95
2017-12-02T16:52:02.554Z,101938.73
2017-12-02T16:54:29.548Z,101932.27
2017-12-02T16:56:56.458Z,101933.10
2017-12-02T16:59:23.365Z,101930.06
2017-12-02T17:01:50.311Z,101934.02
2017-12-02T17:04:17.246Z,101937.13
2017-12-02T17:06:44.161Z,101934.91
2017-12-02T17:09:11.354Z,101930.10
2017-12-02T17:11:38.996Z,101932.73
2017-12-02T17:14:05.928Z,101929.69
2017-12-02T17:16:32.816Z,101933.20
2017-12-02T17:18:59.731Z,101937.97
2017-12-02T17:21:26.638Z,101938.81
2017-12-02T17:23:53.567Z,101939.28
2017-12-02T17:26:20.462Z,101929.67
2017-12-02T17:28:48.237Z,101930.98
2017-12-02T17:31:15.091Z,101930.12
2017-12-02T17:33:41.974Z,101935.41
2017-12-02T17:36:08.824Z,101927.56
2017-12-02T17:38:35.984Z,101932.73
2017-12-02T17:41:02.939Z,101933.62
2017-12-02T17:43:29.868Z,101932.77
2017-12-02T17:45:56.842Z,101933.64
2017-12-02T17:48:25.164Z,101935.39
2017-12-02T17:50:52.039Z,101942.81
2017-12-02T17:53:18.893Z,101940.62
2017-12-02T17:55:45.750Z,101936.27
2017-12-02T17:58:14.460Z,101937.13
2017-12-02T18:00:41.633Z,101931.92
2017-12-02T18:03:08.534Z,101933.20
2017-12-02T18:05:35.398Z,101939.29
2017-12-02T18:08:02.238Z,101933.66
2017-12-02T18:10:29.098Z,101929.30
2017-12-02T18:12:55.976Z,101934.52
2017-12-02T18:15:22.880Z,101944.08
2017-12-02T18:17:50.090Z,101935.84
2017-12-02T18:22:44.370Z,101938.01
2017-12-02T18:25:11.960Z,101943.23
2017-12-02T18:27:38.942Z,101940.17
2017-12-02T18:30:05.828Z,101933.67
2017-12-02T18:32:33.225Z,101944.09
2017-12-02T18:35:00.202Z,101941.91
2017-12-02T18:37:27.803Z,101938.88
2017-12-02T18:39:54.840Z,101940.60
2017-12-02T18:42:21.786Z,101941.05
2017-12-02T18:44:48.652Z,101951.05
2017-12-02T18:47:16.223Z,101954.08
2017-12-02T18:49:43.042Z,101950.17
2017-12-02T18:52:09.866Z,101950.62
2017-12-02T18:54:36.776Z,101946.70
2017-12-02T18:57:03.685Z,101944.07
2017-12-02T18:59:30.530Z,101942.76
2017-12-02T19:01:57.371Z,101941.47
2017-12-02T19:04:24.888Z,101942.30
2017-12-02T19:06:52.345Z,101957.78
2017-12-02T19:09:20.132Z,101954.10
2017-12-02T19:11:47.022Z,101956.70
2017-12-02T19:14:14.687Z,101947.09
2017-12-02T19:16:42.087Z,101944.10
2017-12-02T19:19:08.973Z,101946.26
2017-12-02T19:21:36.604Z,101937.96
2017-12-02T19:24:03.847Z,101944.53
2017-12-02T19:26:31.449Z,101945.37
2017-12-02T19:28:59.084Z,101950.61
2017-12-02T19:31:29.055Z,101948.86
2017-12-02T19:33:55.940Z,101938.83
2017-12-02T19:36:23.295Z,101941.86
2017-12-02T19:38:50.387Z,101952.64
2017-12-02T19:41:19.717Z,101942.34
2017-12-02T19:43:48.144Z,101937.12
2017-12-02T19:46:16.495Z,101953.44
2017-12-02T19:48:46.159Z,101950.09
2017-12-02T19:51:14.150Z,101957.50
2017-12-02T19:53:42.945Z,101947.92
2017-12-02T19:56:13.495Z,101953.17
2017-12-02T19:58:41.691Z,101954.50
2017-12-02T20:01:10.512Z,101954.42
2017-12-02T20:03:39.545Z,101963.17
2017-12-02T20:06:08.377Z,101955.78
2017-12-02T20:08:37.570Z,101955.34
2017-12-02T20:11:05.376Z,101946.67
2017-12-02T20:13:33.126Z,101947.55
2017-12-02T20:16:00.339Z,101951.31
2017-12-02T20:18:28.543Z,101943.20
2017-12-02T20:20:57.746Z,101947.97
2017-12-02T20:23:26.590Z,101944.92
2017-12-02T20:25:54.784Z,101943.62
2017-12-02T20:28:23.165Z,101945.36
2017-12-02T20:30:52.002Z,101946.23
2017-12-02T20:33:20.563Z,101949.17
2017-12-02T20:35:50.288Z,101954.47
2017-12-02T20:38:18.462Z,101943.62
2017-12-02T20:40:47.291Z,101940.61
2017-12-02T20:43:17.068Z,101937.56
2017-12-02T20:45:45.966Z,101934.06
2017-12-02T20:48:15.004Z,101932.34
2017-12-02T20:50:44.682Z,101924.94
2017-12-02T20:53:13.641Z,101925.39
2017-12-02T20:55:42.537Z,101926.14
2017-12-02T20:58:11.331Z,101918.84
2017-12-02T21:00:40.276Z,101915.79
2017-12-02T21:03:08.899Z,101914.08
2017-12-02T21:05:37.542Z,101911.92
2017-12-02T21:08:05.001Z,101912.77
2017-12-02T21:10:33.333Z,101914.41
2017-12-02T21:13:00.271Z,101910.59
2017-12-02T21:15:28.318Z,101912.36
2017-12-02T21:17:55.827Z,101907.52
2017-12-02T21:20:22.846Z,101911.87
2017-12-02T21:22:49.991Z,101902.78
2017-12-02T21:25:19.407Z,101905.82
2017-12-02T21:27:47.293Z,101910.98
2017-12-02T21:30:15.929Z,101896.69
2017-12-02T21:32:43.633Z,101896.70
2017-12-02T21:35:11.472Z,101896.67
2017-12-02T21:37:39.309Z,101895.84
2017-12-02T21:40:07.744Z,101892.80
2017-12-02T21:42:36.035Z,101899.29
2017-12-02T21:45:04.431Z,101909.24
2017-12-02T21:47:32.631Z,101905.80
2017-12-02T21:49:59.795Z,101906.23
2017-12-02T21:52:28.042Z,101901.41
2017-12-02T21:54:55.245Z,101894.08
2017-12-02T21:57:22.164Z,101890.60
2017-12-02T21:59:49.058Z,101891.87
2017-12-02T22:02:16.095Z,101899.29
2017-12-02T22:04:43.112Z,101893.99
2017-12-02T22:07:10.324Z,101902.78
2017-12-02T22:09:37.245Z,101901.88
2017-12-02T22:12:04.104Z,101905.31
2017-12-02T22:14:30.968Z,101899.65
2017-12-02T22:16:57.939Z,101910.16
2017-12-02T22:19:24.826Z,101902.32
2017-12-02T22:21:52.212Z,101897.55
2017-12-02T22:24:19.659Z,101889.31
2017-12-02T22:26:46.732Z,101889.75
2017-12-02T22:29:13.658Z,101887.13
2017-12-02T22:31:41.364Z,101883.24
2017-12-02T22:34:09.292Z,101876.28
2017-12-02T22:36:36.383Z,101879.76
2017-12-02T22:39:03.330Z,101871.08
2017-12-02T22:41:30.184Z,101875.42
2017-12-02T22:43:57.088Z,101873.22
2017-12-02T22:46:23.969Z,101873.66
2017-12-02T22:48:51.587Z,101876.71
2017-12-02T22:51:18.551Z,101871.94
2017-12-02T22:53:45.526Z,101866.29
2017-12-02T22:56:12.438Z,101864.97
2017-12-02T22:58:40.158Z,101865.85
2017-12-02T23:01:07.062Z,101862.81
2017-12-02T23:03:34.493Z,101857.18
2017-12-02T23:06:01.472Z,101855.42
2017-12-02T23:08:28.377Z,101850.20
2017-12-02T23:10:55.981Z,101848.48
2017-12-02T23:13:22.878Z,101847.61
2017-12-02T23:15:49.806Z,101856.73
2017-12-02T23:18:17.217Z,101854.98
2017-12-02T23:20:44.192Z,101854.97
2017-12-02T23:23:11.053Z,101855.00
2017-12-02T23:25:38.816Z,101850.63
2017-12-02T23:28:05.668Z,101847.16
2017-12-02T23:30:32.553Z,101847.17
2017-12-02T23:32:59.437Z,101842.38
2017-12-02T23:35:26.298Z,101838.05
2017-12-02T23:37:53.139Z,101837.63
2017-12-02T23:40:19.999Z,101834.16
2017-12-02T23:42:46.899Z,101829.78
2017-12-02T23:45:14.482Z,101833.27
2017-12-02T23:47:42.397Z,101828.50
2017-12-02T23:50:09.276Z,101826.32
2017-12-02T23:52:37.902Z,101823.27
2017-12-02T23:55:04.902Z,101819.81
2017-12-02T23:57:31.866Z,101817.64
2017-12-02T23:59:59.513Z,101809.37
